sensor_id;sensor_type;location;lat;lon;timestamp;P1;durP1;ratioP1;P2;durP2;ratioP2
9413;SDS011;4746;35.664;139.738;2022-11-20T00:01:30;13.23;;;11.80;;
9413;SDS011;4746;35.664;139.738;2022-11-20T00:03:59;14.20;;;12.10;;
9413;SDS011;4746;35.664;139.738;2022-11-20T00:06:27;14.47;;;12.33;;
9413;SDS011;4746;35.664;139.738;2022-11-20T00:08:57;13.70;;;12.47;;
9413;SDS011;4746;35.664;139.738;2022-11-20T00:11:27;13.47;;;12.17;;
9413;SDS011;4746;35.664;139.738;2022-11-20T00:13:58;13.10;;;11.80;;
9413;SDS011;4746;35.664;139.738;2022-11-20T00:16:28;12.30;;;11.10;;
9413;SDS011;4746;35.664;139.738;2022-11-20T00:18:58;16.07;;;12.20;;
9413;SDS011;4746;35.664;139.738;2022-11-20T00:21:27;11.63;;;10.40;;
9413;SDS011;4746;35.664;139.738;2022-11-20T00:23:56;13.00;;;11.70;;
9413;SDS011;4746;35.664;139.738;2022-11-20T00:26:25;13.40;;;11.33;;
9413;SDS011;4746;35.664;139.738;2022-11-20T00:28:55;14.77;;;12.20;;
9413;SDS011;4746;35.664;139.738;2022-11-20T00:31:25;13.97;;;12.50;;
9413;SDS011;4746;35.664;139.738;2022-11-20T00:33:54;14.17;;;12.60;;
9413;SDS011;4746;35.664;139.738;2022-11-20T00:36:22;15.90;;;13.23;;
9413;SDS011;4746;35.664;139.738;2022-11-20T00:38:53;14.20;;;12.80;;
9413;SDS011;4746;35.664;139.738;2022-11-20T00:41:24;18.33;;;11.90;;
9413;SDS011;4746;35.664;139.738;2022-11-20T00:43:54;14.50;;;12.33;;
9413;SDS011;4746;35.664;139.738;2022-11-20T00:46:23;13.13;;;11.80;;
9413;SDS011;4746;35.664;139.738;2022-11-20T00:48:53;16.43;;;12.17;;
9413;SDS011;4746;35.664;139.738;2022-11-20T00:51:22;13.37;;;11.33;;
9413;SDS011;4746;35.664;139.738;2022-11-20T00:53:54;12.87;;;11.60;;
9413;SDS011;4746;35.664;139.738;2022-11-20T00:56:27;12.93;;;10.10;;
9413;SDS011;4746;35.664;139.738;2022-11-20T00:58:55;12.33;;;11.00;;
9413;SDS011;4746;35.664;139.738;2022-11-20T01:01:26;11.47;;;10.27;;
9413;SDS011;4746;35.664;139.738;2022-11-20T01:03:55;12.33;;;11.10;;
9413;SDS011;4746;35.664;139.738;2022-11-20T01:06:35;12.17;;;10.97;;
9413;SDS011;4746;35.664;139.738;2022-11-20T01:09:05;11.27;;;10.17;;
9413;SDS011;4746;35.664;139.738;2022-11-20T01:11:39;13.47;;;10.87;;
9413;SDS011;4746;35.664;139.738;2022-11-20T01:14:11;12.67;;;11.17;;
9413;SDS011;4746;35.664;139.738;2022-11-20T01:16:44;11.67;;;10.13;;
9413;SDS011;4746;35.664;139.738;2022-11-20T01:19:16;11.87;;;10.67;;
9413;SDS011;4746;35.664;139.738;2022-11-20T01:21:48;10.90;;;9.90;;
9413;SDS011;4746;35.664;139.738;2022-11-20T01:24:19;13.20;;;10.33;;
9413;SDS011;4746;35.664;139.738;2022-11-20T01:26:48;10.83;;;9.73;;
9413;SDS011;4746;35.664;139.738;2022-11-20T01:29:21;10.97;;;9.77;;
9413;SDS011;4746;35.664;139.738;2022-11-20T01:31:51;10.90;;;9.90;;
9413;SDS011;4746;35.664;139.738;2022-11-20T01:34:21;11.80;;;10.00;;
9413;SDS011;4746;35.664;139.738;2022-11-20T01:36:50;11.70;;;10.03;;
9413;SDS011;4746;35.664;139.738;2022-11-20T01:39:20;10.60;;;9.47;;
9413;SDS011;4746;35.664;139.738;2022-11-20T01:41:51;12.47;;;10.93;;
9413;SDS011;4746;35.664;139.738;2022-11-20T01:47:34;12.50;;;10.80;;
9413;SDS011;4746;35.664;139.738;2022-11-20T01:53:03;12.07;;;10.97;;
9413;SDS011;4746;35.664;139.738;2022-11-20T01:55:41;13.03;;;11.83;;
9413;SDS011;4746;35.664;139.738;2022-11-20T01:58:22;13.30;;;11.90;;
9413;SDS011;4746;35.664;139.738;2022-11-20T02:01:01;16.47;;;12.50;;
9413;SDS011;4746;35.664;139.738;2022-11-20T02:03:32;12.30;;;11.00;;
9413;SDS011;4746;35.664;139.738;2022-11-20T02:08:54;12.67;;;11.37;;
9413;SDS011;4746;35.664;139.738;2022-11-20T02:11:22;14.03;;;11.43;;
9413;SDS011;4746;35.664;139.738;2022-11-20T02:13:50;15.57;;;11.83;;
9413;SDS011;4746;35.664;139.738;2022-11-20T02:16:25;14.60;;;11.07;;
9413;SDS011;4746;35.664;139.738;2022-11-20T02:19:01;11.97;;;10.77;;
9413;SDS011;4746;35.664;139.738;2022-11-20T02:24:13;12.37;;;11.00;;
9413;SDS011;4746;35.664;139.738;2022-11-20T02:26:53;12.17;;;10.80;;
9413;SDS011;4746;35.664;139.738;2022-11-20T02:32:04;12.47;;;11.03;;
9413;SDS011;4746;35.664;139.738;2022-11-20T02:34:31;14.70;;;11.07;;
9413;SDS011;4746;35.664;139.738;2022-11-20T02:36:59;12.90;;;11.27;;
9413;SDS011;4746;35.664;139.738;2022-11-20T02:39:27;12.03;;;10.83;;
9413;SDS011;4746;35.664;139.738;2022-11-20T02:41:55;11.93;;;10.83;;
9413;SDS011;4746;35.664;139.738;2022-11-20T02:44:23;13.07;;;10.93;;
9413;SDS011;4746;35.664;139.738;2022-11-20T02:46:51;12.03;;;10.77;;
9413;SDS011;4746;35.664;139.738;2022-11-20T02:49:18;13.33;;;11.30;;
9413;SDS011;4746;35.664;139.738;2022-11-20T02:51:46;12.13;;;10.93;;
9413;SDS011;4746;35.664;139.738;2022-11-20T02:54:13;13.90;;;11.03;;
9413;SDS011;4746;35.664;139.738;2022-11-20T02:56:41;12.17;;;10.70;;
9413;SDS011;4746;35.664;139.738;2022-11-20T02:59:09;11.70;;;10.60;;
9413;SDS011;4746;35.664;139.738;2022-11-20T03:01:36;14.97;;;10.77;;
9413;SDS011;4746;35.664;139.738;2022-11-20T03:04:04;11.70;;;10.50;;
9413;SDS011;4746;35.664;139.738;2022-11-20T03:06:32;11.30;;;10.20;;
9413;SDS011;4746;35.664;139.738;2022-11-20T03:09:00;12.90;;;10.70;;
9413;SDS011;4746;35.664;139.738;2022-11-20T03:11:27;12.37;;;11.00;;
9413;SDS011;4746;35.664;139.738;2022-11-20T03:13:55;12.33;;;11.07;;
9413;SDS011;4746;35.664;139.738;2022-11-20T03:16:23;11.93;;;10.73;;
9413;SDS011;4746;35.664;139.738;2022-11-20T03:18:51;12.80;;;11.50;;
9413;SDS011;4746;35.664;139.738;2022-11-20T03:21:19;11.93;;;10.70;;
9413;SDS011;4746;35.664;139.738;2022-11-20T03:23:47;12.83;;;11.07;;
9413;SDS011;4746;35.664;139.738;2022-11-20T03:26:19;13.10;;;11.40;;
9413;SDS011;4746;35.664;139.738;2022-11-20T03:28:50;12.80;;;10.77;;
9413;SDS011;4746;35.664;139.738;2022-11-20T03:31:24;12.40;;;10.57;;
9413;SDS011;4746;35.664;139.738;2022-11-20T03:33:55;11.97;;;10.77;;
9413;SDS011;4746;35.664;139.738;2022-11-20T03:36:24;16.53;;;11.17;;
9413;SDS011;4746;35.664;139.738;2022-11-20T03:38:56;12.13;;;10.73;;
9413;SDS011;4746;35.664;139.738;2022-11-20T03:41:28;13.10;;;11.23;;
9413;SDS011;4746;35.664;139.738;2022-11-20T03:43:58;12.53;;;11.20;;
9413;SDS011;4746;35.664;139.738;2022-11-20T03:46:29;13.33;;;11.23;;
9413;SDS011;4746;35.664;139.738;2022-11-20T03:48:57;11.90;;;10.70;;
9413;SDS011;4746;35.664;139.738;2022-11-20T03:51:26;11.70;;;10.50;;
9413;SDS011;4746;35.664;139.738;2022-11-20T03:53:57;13.43;;;11.07;;
9413;SDS011;4746;35.664;139.738;2022-11-20T03:56:30;14.93;;;11.17;;
9413;SDS011;4746;35.664;139.738;2022-11-20T03:59:02;12.00;;;10.70;;
9413;SDS011;4746;35.664;139.738;2022-11-20T04:01:34;12.40;;;10.90;;
9413;SDS011;4746;35.664;139.738;2022-11-20T04:04:03;12.40;;;10.83;;
9413;SDS011;4746;35.664;139.738;2022-11-20T04:06:35;11.60;;;10.50;;
9413;SDS011;4746;35.664;139.738;2022-11-20T04:09:05;14.03;;;11.83;;
9413;SDS011;4746;35.664;139.738;2022-11-20T04:11:33;12.63;;;10.63;;
9413;SDS011;4746;35.664;139.738;2022-11-20T04:14:06;13.60;;;11.10;;
9413;SDS011;4746;35.664;139.738;2022-11-20T04:16:42;11.87;;;10.77;;
9413;SDS011;4746;35.664;139.738;2022-11-20T04:19:10;14.87;;;11.30;;
9413;SDS011;4746;35.664;139.738;2022-11-20T04:21:41;12.53;;;10.77;;
9413;SDS011;4746;35.664;139.738;2022-11-20T04:24:10;12.63;;;11.17;;
9413;SDS011;4746;35.664;139.738;2022-11-20T04:26:38;13.10;;;11.70;;
9413;SDS011;4746;35.664;139.738;2022-11-20T04:29:10;11.67;;;10.57;;
9413;SDS011;4746;35.664;139.738;2022-11-20T04:31:38;13.03;;;11.70;;
9413;SDS011;4746;35.664;139.738;2022-11-20T04:34:06;19.03;;;17.13;;
9413;SDS011;4746;35.664;139.738;2022-11-20T04:36:34;14.73;;;11.63;;
9413;SDS011;4746;35.664;139.738;2022-11-20T04:39:03;14.27;;;12.40;;
9413;SDS011;4746;35.664;139.738;2022-11-20T04:41:33;15.43;;;11.90;;
9413;SDS011;4746;35.664;139.738;2022-11-20T04:44:03;12.77;;;11.47;;
9413;SDS011;4746;35.664;139.738;2022-11-20T04:46:36;13.17;;;11.87;;
9413;SDS011;4746;35.664;139.738;2022-11-20T04:49:09;17.27;;;12.63;;
9413;SDS011;4746;35.664;139.738;2022-11-20T04:51:37;14.33;;;12.83;;
9413;SDS011;4746;35.664;139.738;2022-11-20T04:54:05;15.13;;;13.53;;
9413;SDS011;4746;35.664;139.738;2022-11-20T04:56:32;15.50;;;13.87;;
9413;SDS011;4746;35.664;139.738;2022-11-20T04:59:00;14.67;;;13.10;;
9413;SDS011;4746;35.664;139.738;2022-11-20T05:01:29;15.63;;;13.33;;
9413;SDS011;4746;35.664;139.738;2022-11-20T05:03:57;16.57;;;13.80;;
9413;SDS011;4746;35.664;139.738;2022-11-20T05:06:25;15.33;;;13.07;;
9413;SDS011;4746;35.664;139.738;2022-11-20T05:08:52;14.17;;;12.67;;
9413;SDS011;4746;35.664;139.738;2022-11-20T05:11:21;15.13;;;13.53;;
9413;SDS011;4746;35.664;139.738;2022-11-20T05:13:50;17.03;;;13.60;;
9413;SDS011;4746;35.664;139.738;2022-11-20T05:16:19;14.30;;;12.80;;
9413;SDS011;4746;35.664;139.738;2022-11-20T05:18:50;16.93;;;14.53;;
9413;SDS011;4746;35.664;139.738;2022-11-20T05:21:19;16.60;;;14.13;;
9413;SDS011;4746;35.664;139.738;2022-11-20T05:23:48;16.90;;;14.90;;
9413;SDS011;4746;35.664;139.738;2022-11-20T05:26:16;15.87;;;14.27;;
9413;SDS011;4746;35.664;139.738;2022-11-20T05:28:47;17.30;;;15.43;;
9413;SDS011;4746;35.664;139.738;2022-11-20T05:31:18;16.73;;;14.67;;
9413;SDS011;4746;35.664;139.738;2022-11-20T05:33:48;16.47;;;14.77;;
9413;SDS011;4746;35.664;139.738;2022-11-20T05:36:16;15.77;;;14.17;;
9413;SDS011;4746;35.664;139.738;2022-11-20T05:38:44;17.10;;;14.63;;
9413;SDS011;4746;35.664;139.738;2022-11-20T05:41:18;17.70;;;14.13;;
9413;SDS011;4746;35.664;139.738;2022-11-20T05:43:47;18.23;;;15.23;;
9413;SDS011;4746;35.664;139.738;2022-11-20T05:46:17;20.13;;;16.47;;
9413;SDS011;4746;35.664;139.738;2022-11-20T05:48:46;18.80;;;15.00;;
9413;SDS011;4746;35.664;139.738;2022-11-20T05:51:16;16.70;;;15.10;;
9413;SDS011;4746;35.664;139.738;2022-11-20T05:53:45;25.47;;;16.03;;
9413;SDS011;4746;35.664;139.738;2022-11-20T05:56:17;21.17;;;16.60;;
9413;SDS011;4746;35.664;139.738;2022-11-20T05:58:47;18.83;;;14.97;;
9413;SDS011;4746;35.664;139.738;2022-11-20T06:01:17;21.43;;;17.47;;
9413;SDS011;4746;35.664;139.738;2022-11-20T06:03:48;17.87;;;15.97;;
9413;SDS011;4746;35.664;139.738;2022-11-20T06:06:17;19.90;;;16.80;;
9413;SDS011;4746;35.664;139.738;2022-11-20T06:08:46;17.70;;;15.90;;
9413;SDS011;4746;35.664;139.738;2022-11-20T06:11:15;19.33;;;17.33;;
9413;SDS011;4746;35.664;139.738;2022-11-20T06:13:43;19.90;;;17.80;;
9413;SDS011;4746;35.664;139.738;2022-11-20T06:16:12;20.03;;;17.93;;
9413;SDS011;4746;35.664;139.738;2022-11-20T06:18:43;18.07;;;16.07;;
9413;SDS011;4746;35.664;139.738;2022-11-20T06:21:15;19.43;;;17.30;;
9413;SDS011;4746;35.664;139.738;2022-11-20T06:23:46;20.17;;;17.63;;
9413;SDS011;4746;35.664;139.738;2022-11-20T06:26:16;20.27;;;18.20;;
9413;SDS011;4746;35.664;139.738;2022-11-20T06:28:53;21.10;;;17.63;;
9413;SDS011;4746;35.664;139.738;2022-11-20T06:31:23;19.97;;;17.87;;
9413;SDS011;4746;35.664;139.738;2022-11-20T06:33:52;22.20;;;17.57;;
9413;SDS011;4746;35.664;139.738;2022-11-20T06:36:21;20.03;;;17.80;;
9413;SDS011;4746;35.664;139.738;2022-11-20T06:38:49;20.57;;;18.33;;
9413;SDS011;4746;35.664;139.738;2022-11-20T06:41:18;22.40;;;18.33;;
9413;SDS011;4746;35.664;139.738;2022-11-20T06:43:47;21.90;;;19.80;;
9413;SDS011;4746;35.664;139.738;2022-11-20T06:46:16;20.57;;;18.37;;
9413;SDS011;4746;35.664;139.738;2022-11-20T06:48:46;22.07;;;19.60;;
9413;SDS011;4746;35.664;139.738;2022-11-20T06:51:14;24.80;;;19.70;;
9413;SDS011;4746;35.664;139.738;2022-11-20T06:53:42;22.70;;;20.20;;
9413;SDS011;4746;35.664;139.738;2022-11-20T06:56:10;21.60;;;19.30;;
9413;SDS011;4746;35.664;139.738;2022-11-20T06:58:37;22.10;;;19.73;;
9413;SDS011;4746;35.664;139.738;2022-11-20T07:01:10;21.07;;;19.03;;
9413;SDS011;4746;35.664;139.738;2022-11-20T07:03:42;20.30;;;18.17;;
9413;SDS011;4746;35.664;139.738;2022-11-20T07:06:10;22.80;;;20.50;;
9413;SDS011;4746;35.664;139.738;2022-11-20T07:08:37;22.23;;;19.60;;
9413;SDS011;4746;35.664;139.738;2022-11-20T07:11:06;20.57;;;18.40;;
9413;SDS011;4746;35.664;139.738;2022-11-20T07:13:34;22.73;;;19.70;;
9413;SDS011;4746;35.664;139.738;2022-11-20T07:16:02;20.57;;;18.40;;
9413;SDS011;4746;35.664;139.738;2022-11-20T07:18:33;19.83;;;17.70;;
9413;SDS011;4746;35.664;139.738;2022-11-20T07:21:02;21.73;;;19.20;;
9413;SDS011;4746;35.664;139.738;2022-11-20T07:23:32;19.43;;;17.27;;
9413;SDS011;4746;35.664;139.738;2022-11-20T07:26:07;19.27;;;17.47;;
9413;SDS011;4746;35.664;139.738;2022-11-20T07:28:37;20.27;;;17.67;;
9413;SDS011;4746;35.664;139.738;2022-11-20T07:31:05;22.63;;;18.57;;
9413;SDS011;4746;35.664;139.738;2022-11-20T07:33:32;21.03;;;18.63;;
9413;SDS011;4746;35.664;139.738;2022-11-20T07:36:00;22.73;;;18.40;;
9413;SDS011;4746;35.664;139.738;2022-11-20T07:38:28;19.43;;;17.33;;
9413;SDS011;4746;35.664;139.738;2022-11-20T07:40:56;19.70;;;17.27;;
9413;SDS011;4746;35.664;139.738;2022-11-20T07:43:26;20.93;;;18.80;;
9413;SDS011;4746;35.664;139.738;2022-11-20T07:45:58;21.57;;;19.47;;
9413;SDS011;4746;35.664;139.738;2022-11-20T07:48:25;22.83;;;20.50;;
9413;SDS011;4746;35.664;139.738;2022-11-20T07:50:54;24.77;;;21.57;;
9413;SDS011;4746;35.664;139.738;2022-11-20T07:53:22;23.03;;;20.57;;
9413;SDS011;4746;35.664;139.738;2022-11-20T07:55:50;22.27;;;20.10;;
9413;SDS011;4746;35.664;139.738;2022-11-20T07:58:18;26.23;;;22.60;;
9413;SDS011;4746;35.664;139.738;2022-11-20T08:00:47;24.70;;;22.07;;
9413;SDS011;4746;35.664;139.738;2022-11-20T08:03:15;24.90;;;22.20;;
9413;SDS011;4746;35.664;139.738;2022-11-20T08:05:42;23.70;;;21.17;;
9413;SDS011;4746;35.664;139.738;2022-11-20T08:08:10;23.57;;;21.17;;
9413;SDS011;4746;35.664;139.738;2022-11-20T08:10:38;21.73;;;19.53;;
9413;SDS011;4746;35.664;139.738;2022-11-20T08:13:05;21.60;;;19.30;;
9413;SDS011;4746;35.664;139.738;2022-11-20T08:15:52;22.23;;;19.77;;
9413;SDS011;4746;35.664;139.738;2022-11-20T08:18:20;21.63;;;19.47;;
9413;SDS011;4746;35.664;139.738;2022-11-20T08:20:47;20.17;;;18.00;;
9413;SDS011;4746;35.664;139.738;2022-11-20T08:23:15;21.80;;;19.13;;
9413;SDS011;4746;35.664;139.738;2022-11-20T08:25:42;23.10;;;20.60;;
9413;SDS011;4746;35.664;139.738;2022-11-20T08:28:14;24.37;;;21.77;;
9413;SDS011;4746;35.664;139.738;2022-11-20T08:30:42;23.37;;;20.97;;
9413;SDS011;4746;35.664;139.738;2022-11-20T08:33:11;22.97;;;20.50;;
9413;SDS011;4746;35.664;139.738;2022-11-20T08:35:38;22.40;;;20.00;;
9413;SDS011;4746;35.664;139.738;2022-11-20T08:38:07;23.63;;;21.10;;
9413;SDS011;4746;35.664;139.738;2022-11-20T08:40:35;23.63;;;21.20;;
9413;SDS011;4746;35.664;139.738;2022-11-20T08:43:03;22.80;;;20.37;;
9413;SDS011;4746;35.664;139.738;2022-11-20T08:45:30;24.73;;;22.13;;
9413;SDS011;4746;35.664;139.738;2022-11-20T08:48:01;24.23;;;21.63;;
9413;SDS011;4746;35.664;139.738;2022-11-20T08:50:30;22.53;;;20.23;;
9413;SDS011;4746;35.664;139.738;2022-11-20T08:53:06;24.50;;;22.00;;
9413;SDS011;4746;35.664;139.738;2022-11-20T08:55:34;22.80;;;20.43;;
9413;SDS011;4746;35.664;139.738;2022-11-20T08:58:05;22.00;;;19.73;;
9413;SDS011;4746;35.664;139.738;2022-11-20T09:00:34;27.83;;;22.10;;
9413;SDS011;4746;35.664;139.738;2022-11-20T09:03:02;22.20;;;19.90;;
9413;SDS011;4746;35.664;139.738;2022-11-20T09:05:30;23.17;;;20.70;;
9413;SDS011;4746;35.664;139.738;2022-11-20T09:07:59;22.13;;;19.83;;
9413;SDS011;4746;35.664;139.738;2022-11-20T09:10:27;22.63;;;20.27;;
9413;SDS011;4746;35.664;139.738;2022-11-20T09:12:55;23.37;;;20.27;;
9413;SDS011;4746;35.664;139.738;2022-11-20T09:15:23;26.20;;;19.93;;
9413;SDS011;4746;35.664;139.738;2022-11-20T09:20:21;21.40;;;19.10;;
9413;SDS011;4746;35.664;139.738;2022-11-20T09:22:49;21.70;;;19.60;;
9413;SDS011;4746;35.664;139.738;2022-11-20T09:25:17;22.47;;;20.27;;
9413;SDS011;4746;35.664;139.738;2022-11-20T09:27:45;21.03;;;17.33;;
9413;SDS011;4746;35.664;139.738;2022-11-20T09:30:13;25.27;;;20.47;;
9413;SDS011;4746;35.664;139.738;2022-11-20T09:32:41;23.13;;;20.60;;
9413;SDS011;4746;35.664;139.738;2022-11-20T09:35:09;21.63;;;19.63;;
9413;SDS011;4746;35.664;139.738;2022-11-20T09:37:37;22.97;;;20.20;;
9413;SDS011;4746;35.664;139.738;2022-11-20T09:40:05;22.27;;;19.80;;
9413;SDS011;4746;35.664;139.738;2022-11-20T09:42:51;22.67;;;20.43;;
9413;SDS011;4746;35.664;139.738;2022-11-20T09:54:39;23.33;;;21.03;;
9413;SDS011;4746;35.664;139.738;2022-11-20T09:57:10;22.00;;;19.70;;
9413;SDS011;4746;35.664;139.738;2022-11-20T09:59:48;24.00;;;21.50;;
9413;SDS011;4746;35.664;139.738;2022-11-20T10:05:24;20.73;;;18.53;;
9413;SDS011;4746;35.664;139.738;2022-11-20T10:14:11;21.77;;;19.57;;
9413;SDS011;4746;35.664;139.738;2022-11-20T10:17:10;18.47;;;16.67;;
9413;SDS011;4746;35.664;139.738;2022-11-20T10:20:02;25.23;;;18.57;;
9413;SDS011;4746;35.664;139.738;2022-11-20T10:23:30;23.10;;;19.33;;
9413;SDS011;4746;35.664;139.738;2022-11-20T10:26:35;21.43;;;19.23;;
9413;SDS011;4746;35.664;139.738;2022-11-20T10:29:34;20.87;;;18.33;;
9413;SDS011;4746;35.664;139.738;2022-11-20T10:32:16;21.57;;;19.27;;
9413;SDS011;4746;35.664;139.738;2022-11-20T10:35:06;21.00;;;18.70;;
9413;SDS011;4746;35.664;139.738;2022-11-20T10:37:41;20.37;;;18.47;;
9413;SDS011;4746;35.664;139.738;2022-11-20T10:46:02;21.00;;;18.70;;
9413;SDS011;4746;35.664;139.738;2022-11-20T10:48:47;17.80;;;16.00;;
9413;SDS011;4746;35.664;139.738;2022-11-20T11:00:04;17.97;;;16.07;;
9413;SDS011;4746;35.664;139.738;2022-11-20T11:02:39;19.50;;;17.40;;
9413;SDS011;4746;35.664;139.738;2022-11-20T11:08:23;17.13;;;15.37;;
9413;SDS011;4746;35.664;139.738;2022-11-20T11:11:02;18.10;;;16.33;;
9413;SDS011;4746;35.664;139.738;2022-11-20T11:14:08;19.07;;;17.07;;
9413;SDS011;4746;35.664;139.738;2022-11-20T11:17:01;19.33;;;17.57;;
9413;SDS011;4746;35.664;139.738;2022-11-20T11:19:28;17.90;;;16.03;;
9413;SDS011;4746;35.664;139.738;2022-11-20T11:21:56;19.10;;;16.97;;
9413;SDS011;4746;35.664;139.738;2022-11-20T11:24:28;19.53;;;17.53;;
9413;SDS011;4746;35.664;139.738;2022-11-20T11:27:00;20.60;;;18.40;;
9413;SDS011;4746;35.664;139.738;2022-11-20T11:29:36;19.63;;;17.73;;
9413;SDS011;4746;35.664;139.738;2022-11-20T11:32:20;18.13;;;16.43;;
9413;SDS011;4746;35.664;139.738;2022-11-20T11:35:20;21.13;;;17.03;;
9413;SDS011;4746;35.664;139.738;2022-11-20T11:38:01;20.07;;;17.97;;
9413;SDS011;4746;35.664;139.738;2022-11-20T11:40:40;19.23;;;17.23;;
9413;SDS011;4746;35.664;139.738;2022-11-20T11:43:16;18.83;;;16.93;;
9413;SDS011;4746;35.664;139.738;2022-11-20T11:46:30;18.03;;;16.13;;
9413;SDS011;4746;35.664;139.738;2022-11-20T11:49:22;17.83;;;16.10;;
9413;SDS011;4746;35.664;139.738;2022-11-20T11:54:47;18.40;;;16.50;;
9413;SDS011;4746;35.664;139.738;2022-11-20T12:01:03;16.40;;;14.80;;
9413;SDS011;4746;35.664;139.738;2022-11-20T12:04:36;15.70;;;14.30;;
9413;SDS011;4746;35.664;139.738;2022-11-20T12:07:18;16.87;;;14.37;;
9413;SDS011;4746;35.664;139.738;2022-11-20T12:10:19;16.57;;;15.07;;
9413;SDS011;4746;35.664;139.738;2022-11-20T12:12:55;16.83;;;15.30;;
9413;SDS011;4746;35.664;139.738;2022-11-20T12:15:37;16.37;;;14.57;;
9413;SDS011;4746;35.664;139.738;2022-11-20T12:18:17;16.20;;;14.50;;
9413;SDS011;4746;35.664;139.738;2022-11-20T12:27:01;16.40;;;15.00;;
9413;SDS011;4746;35.664;139.738;2022-11-20T12:30:02;17.00;;;15.30;;
9413;SDS011;4746;35.664;139.738;2022-11-20T12:36:05;16.80;;;15.17;;
9413;SDS011;4746;35.664;139.738;2022-11-20T12:39:22;16.80;;;14.97;;
9413;SDS011;4746;35.664;139.738;2022-11-20T12:57:54;17.73;;;14.63;;
9413;SDS011;4746;35.664;139.738;2022-11-20T13:02:46;15.80;;;14.37;;
9413;SDS011;4746;35.664;139.738;2022-11-20T13:08:39;16.10;;;14.50;;
9413;SDS011;4746;35.664;139.738;2022-11-20T13:14:24;15.13;;;13.67;;
9413;SDS011;4746;35.664;139.738;2022-11-20T13:17:21;15.53;;;13.97;;
9413;SDS011;4746;35.664;139.738;2022-11-20T13:20:16;16.00;;;14.23;;
9413;SDS011;4746;35.664;139.738;2022-11-20T13:22:47;15.63;;;14.17;;
9413;SDS011;4746;35.664;139.738;2022-11-20T13:28:25;15.67;;;13.23;;
9413;SDS011;4746;35.664;139.738;2022-11-20T13:30:57;14.67;;;13.07;;
9413;SDS011;4746;35.664;139.738;2022-11-20T13:36:20;14.43;;;13.13;;
9413;SDS011;4746;35.664;139.738;2022-11-20T13:38:55;13.80;;;12.50;;
9413;SDS011;4746;35.664;139.738;2022-11-20T13:41:26;13.17;;;12.07;;
9413;SDS011;4746;35.664;139.738;2022-11-20T13:44:09;16.77;;;14.67;;
9413;SDS011;4746;35.664;139.738;2022-11-20T13:47:03;13.50;;;10.50;;
9413;SDS011;4746;35.664;139.738;2022-11-20T13:49:46;13.20;;;11.90;;
9413;SDS011;4746;35.664;139.738;2022-11-20T14:00:50;13.50;;;12.20;;
9413;SDS011;4746;35.664;139.738;2022-11-20T14:03:42;13.67;;;12.37;;
9413;SDS011;4746;35.664;139.738;2022-11-20T14:06:44;13.57;;;12.33;;
9413;SDS011;4746;35.664;139.738;2022-11-20T14:09:13;16.13;;;13.13;;
9413;SDS011;4746;35.664;139.738;2022-11-20T14:11:58;14.27;;;12.77;;
9413;SDS011;4746;35.664;139.738;2022-11-20T14:14:27;15.70;;;14.10;;
9413;SDS011;4746;35.664;139.738;2022-11-20T14:19:43;13.47;;;11.70;;
9413;SDS011;4746;35.664;139.738;2022-11-20T14:22:22;14.40;;;12.83;;
9413;SDS011;4746;35.664;139.738;2022-11-20T14:27:38;14.30;;;12.90;;
9413;SDS011;4746;35.664;139.738;2022-11-20T14:30:13;13.80;;;12.43;;
9413;SDS011;4746;35.664;139.738;2022-11-20T14:32:51;13.97;;;12.57;;
9413;SDS011;4746;35.664;139.738;2022-11-20T14:35:26;13.97;;;12.57;;
9413;SDS011;4746;35.664;139.738;2022-11-20T14:38:03;13.33;;;12.00;;
9413;SDS011;4746;35.664;139.738;2022-11-20T14:40:38;13.47;;;12.17;;
9413;SDS011;4746;35.664;139.738;2022-11-20T14:43:17;15.00;;;13.70;;
9413;SDS011;4746;35.664;139.738;2022-11-20T14:51:30;14.87;;;13.47;;
9413;SDS011;4746;35.664;139.738;2022-11-20T14:54:17;14.23;;;12.93;;
9413;SDS011;4746;35.664;139.738;2022-11-20T14:56:58;14.70;;;13.20;;
9413;SDS011;4746;35.664;139.738;2022-11-20T14:59:31;14.27;;;12.87;;
9413;SDS011;4746;35.664;139.738;2022-11-20T15:02:04;14.70;;;13.27;;
9413;SDS011;4746;35.664;139.738;2022-11-20T15:04:48;14.10;;;12.70;;
9413;SDS011;4746;35.664;139.738;2022-11-20T15:07:28;13.40;;;12.07;;
9413;SDS011;4746;35.664;139.738;2022-11-20T15:10:05;14.13;;;12.73;;
9413;SDS011;4746;35.664;139.738;2022-11-20T15:12:38;15.57;;;14.07;;
9413;SDS011;4746;35.664;139.738;2022-11-20T15:15:31;15.70;;;14.30;;
9413;SDS011;4746;35.664;139.738;2022-11-20T15:18:17;14.93;;;13.47;;
9413;SDS011;4746;35.664;139.738;2022-11-20T15:20:57;13.83;;;12.43;;
9413;SDS011;4746;35.664;139.738;2022-11-20T15:23:29;13.57;;;12.20;;
9413;SDS011;4746;35.664;139.738;2022-11-20T15:25:57;13.73;;;12.50;;
9413;SDS011;4746;35.664;139.738;2022-11-20T15:28:27;14.37;;;12.90;;
9413;SDS011;4746;35.664;139.738;2022-11-20T15:30:57;14.70;;;13.43;;
9413;SDS011;4746;35.664;139.738;2022-11-20T15:33:27;14.10;;;12.80;;
9413;SDS011;4746;35.664;139.738;2022-11-20T15:35:56;16.17;;;14.60;;
9413;SDS011;4746;35.664;139.738;2022-11-20T15:38:23;15.03;;;13.43;;
9413;SDS011;4746;35.664;139.738;2022-11-20T15:40:51;13.50;;;12.20;;
9413;SDS011;4746;35.664;139.738;2022-11-20T15:43:19;13.27;;;12.07;;
9413;SDS011;4746;35.664;139.738;2022-11-20T15:45:50;13.30;;;12.13;;
9413;SDS011;4746;35.664;139.738;2022-11-20T15:48:53;12.90;;;11.70;;
9413;SDS011;4746;35.664;139.738;2022-11-20T15:54:05;15.17;;;13.77;;
9413;SDS011;4746;35.664;139.738;2022-11-20T15:56:48;14.60;;;13.20;;
9413;SDS011;4746;35.664;139.738;2022-11-20T15:59:19;13.00;;;11.80;;
9413;SDS011;4746;35.664;139.738;2022-11-20T16:01:47;13.27;;;12.07;;
9413;SDS011;4746;35.664;139.738;2022-11-20T16:04:16;14.57;;;13.17;;
9413;SDS011;4746;35.664;139.738;2022-11-20T16:06:43;13.90;;;12.60;;
9413;SDS011;4746;35.664;139.738;2022-11-20T16:09:11;15.17;;;13.80;;
9413;SDS011;4746;35.664;139.738;2022-11-20T16:11:39;14.10;;;12.90;;
9413;SDS011;4746;35.664;139.738;2022-11-20T16:14:09;14.37;;;13.03;;
9413;SDS011;4746;35.664;139.738;2022-11-20T16:16:55;14.37;;;13.07;;
9413;SDS011;4746;35.664;139.738;2022-11-20T16:19:23;15.40;;;13.80;;
9413;SDS011;4746;35.664;139.738;2022-11-20T16:21:50;14.37;;;12.97;;
9413;SDS011;4746;35.664;139.738;2022-11-20T16:24:18;14.00;;;12.80;;
9413;SDS011;4746;35.664;139.738;2022-11-20T16:26:45;15.50;;;13.90;;
9413;SDS011;4746;35.664;139.738;2022-11-20T16:29:13;13.27;;;11.93;;
9413;SDS011;4746;35.664;139.738;2022-11-20T16:31:41;13.83;;;12.57;;
9413;SDS011;4746;35.664;139.738;2022-11-20T16:34:08;13.97;;;12.67;;
9413;SDS011;4746;35.664;139.738;2022-11-20T16:36:36;13.30;;;12.10;;
9413;SDS011;4746;35.664;139.738;2022-11-20T16:39:07;14.30;;;12.90;;
9413;SDS011;4746;35.664;139.738;2022-11-20T16:41:35;14.17;;;12.77;;
9413;SDS011;4746;35.664;139.738;2022-11-20T16:44:07;14.77;;;13.47;;
9413;SDS011;4746;35.664;139.738;2022-11-20T16:46:36;14.90;;;13.60;;
9413;SDS011;4746;35.664;139.738;2022-11-20T16:49:06;16.87;;;15.10;;
9413;SDS011;4746;35.664;139.738;2022-11-20T16:51:39;14.67;;;13.37;;
9413;SDS011;4746;35.664;139.738;2022-11-20T16:54:08;15.67;;;14.27;;
9413;SDS011;4746;35.664;139.738;2022-11-20T16:56:37;16.43;;;14.80;;